Time;durP1;ratioP1;P1;durP2;ratioP2;P2;SDS_P1;SDS_P2;PMS_P1;PMS_P2;Temp;Humidity;BMP_temperature;BMP_pressure;BME280_temperature;BME280_humidity;BME280_pressure;Samples;Min_cycle;Max_cycle;Signal;HPM_P1;HPM_P2
2023/03/06 00:02:23;;;;;;;1.27;0.60;;;18.00;32.80;;;;;;4941161;29;20237;-84
2023/03/06 00:04:49;;;;;;;1.08;0.57;;;18.00;32.80;;;;;;4958299;29;20583;-83
2023/03/06 00:07:16;;;;;;;1.33;0.75;;;18.00;32.80;;;;;;4925072;29;20201;-83
2023/03/06 00:09:41;;;;;;;1.10;0.57;;;18.00;32.80;;;;;;4925048;29;20695;-83
2023/03/06 00:12:08;;;;;;;0.75;0.60;;;18.00;32.80;;;;;;4909613;29;20197;-83
2023/03/06 00:14:37;;;;;;;0.95;0.60;;;18.00;32.80;;;;;;4956918;28;20189;-82
2023/03/06 00:17:03;;;;;;;0.95;0.50;;;18.00;32.80;;;;;;4940859;29;20223;-83
2023/03/06 00:19:28;;;;;;;1.45;0.45;;;18.00;32.80;;;;;;4940925;29;20173;-83
2023/03/06 00:21:57;;;;;;;0.73;0.40;;;18.00;32.80;;;;;;4941006;29;20157;-84
2023/03/06 00:24:23;;;;;;;3.47;0.60;;;17.90;32.70;;;;;;4940342;29;20260;-82
2023/03/06 00:26:50;;;;;;;1.83;0.60;;;18.00;32.80;;;;;;4909421;29;20688;-83
2023/03/06 00:29:15;;;;;;;1.33;0.60;;;17.90;32.80;;;;;;4956468;29;20161;-83
2023/03/06 00:31:45;;;;;;;2.45;0.60;;;18.00;32.80;;;;;;4924314;29;20173;-85
2023/03/06 00:34:11;;;;;;;1.85;0.60;;;18.00;32.80;;;;;;4940357;29;20189;-84
2023/03/06 00:36:38;;;;;;;0.77;0.50;;;18.00;32.90;;;;;;4924564;29;20154;-82
2023/03/06 00:39:04;;;;;;;1.30;0.47;;;17.90;32.80;;;;;;4956298;28;20621;-83
2023/03/06 00:41:29;;;;;;;1.02;0.50;;;18.00;32.90;;;;;;4955768;28;20205;-82
2023/03/06 00:43:56;;;;;;;1.98;0.43;;;18.00;32.90;;;;;;4924548;29;20161;-84
2023/03/06 00:46:22;;;;;;;0.77;0.55;;;18.00;32.90;;;;;;4924965;29;20169;-83
2023/03/06 00:48:50;;;;;;;1.05;0.50;;;17.90;32.90;;;;;;4940887;29;20232;-83
2023/03/06 00:51:18;;;;;;;1.63;0.80;;;17.90;32.90;;;;;;4924358;29;20193;-84
2023/03/06 00:53:46;;;;;;;1.45;0.50;;;17.90;32.90;;;;;;4955746;29;20193;-82
2023/03/06 00:56:12;;;;;;;1.10;0.65;;;17.90;32.90;;;;;;4924370;29;20162;-83
2023/03/06 00:58:38;;;;;;;1.50;0.50;;;17.90;32.90;;;;;;4939584;29;20181;-85
2023/03/06 01:01:03;;;;;;;0.70;0.50;;;17.90;32.90;;;;;;4924110;29;20217;-82
2023/03/06 01:03:29;;;;;;;1.05;0.60;;;18.00;33.00;;;;;;4924737;29;20172;-84
2023/03/06 01:05:55;;;;;;;1.17;0.57;;;17.90;32.90;;;;;;4940546;29;20165;-82
2023/03/06 01:08:21;;;;;;;0.70;0.50;;;17.90;32.90;;;;;;4924269;29;20646;-83
2023/03/06 01:10:47;;;;;;;1.42;0.43;;;17.90;32.90;;;;;;4940000;29;20216;-83
2023/03/06 01:13:13;;;;;;;1.83;0.70;;;17.90;33.00;;;;;;4923659;29;20169;-83
2023/03/06 01:15:38;;;;;;;3.13;0.57;;;17.90;33.00;;;;;;4940098;29;20161;-82
2023/03/06 01:18:04;;;;;;;0.90;0.50;;;17.90;33.00;;;;;;4923993;29;20184;-84
2023/03/06 01:20:30;;;;;;;0.93;0.63;;;17.90;33.00;;;;;;4924207;29;20180;-84
2023/03/06 01:22:55;;;;;;;2.42;0.50;;;17.90;33.00;;;;;;4955238;28;20168;-83
2023/03/06 01:25:23;;;;;;;1.20;0.60;;;17.90;33.00;;;;;;4922701;28;20541;-84
2023/03/06 01:27:49;;;;;;;1.75;0.60;;;17.90;33.00;;;;;;4904241;29;20688;-84
2023/03/06 01:30:14;;;;;;;0.80;0.60;;;17.90;33.00;;;;;;4904536;29;20190;-83
2023/03/06 01:32:43;;;;;;;0.77;0.55;;;17.80;33.00;;;;;;4889254;29;20300;-83
2023/03/06 01:35:09;;;;;;;1.13;0.70;;;17.90;33.00;;;;;;4904077;29;20202;-83
2023/03/06 01:37:35;;;;;;;1.33;0.60;;;17.90;33.00;;;;;;4888552;29;20170;-84
2023/03/06 01:40:01;;;;;;;0.68;0.40;;;17.90;33.00;;;;;;4904720;29;20163;-83
2023/03/06 01:42:27;;;;;;;1.08;0.60;;;17.90;33.00;;;;;;4904263;29;20498;-81
2023/03/06 01:45:04;;;;;;;1.60;0.63;;;17.90;33.00;;;;;;4888667;29;20260;-84
2023/03/06 01:47:30;;;;;;;1.23;0.50;;;17.90;33.10;;;;;;4904717;29;20239;-84
2023/03/06 01:49:56;;;;;;;0.82;0.52;;;17.80;33.10;;;;;;4904300;29;20162;-84
2023/03/06 01:52:24;;;;;;;1.60;0.52;;;17.90;33.10;;;;;;4904731;29;20161;-82
2023/03/06 01:54:58;;;;;;;1.55;0.60;;;17.90;33.10;;;;;;4906801;29;20286;-84
2023/03/06 01:57:27;;;;;;;1.15;0.60;;;17.90;33.80;;;;;;4892636;29;20248;-83
2023/03/06 01:59:57;;;;;;;0.65;0.45;;;17.80;33.10;;;;;;4892605;29;20224;-84
2023/03/06 02:02:24;;;;;;;1.13;0.60;;;17.80;33.10;;;;;;4892469;29;20613;-82
2023/03/06 02:04:49;;;;;;;1.35;0.57;;;17.90;33.10;;;;;;4907663;29;20163;-83
2023/03/06 02:07:16;;;;;;;1.00;0.40;;;17.80;33.10;;;;;;4923536;29;20165;-83
2023/03/06 02:09:42;;;;;;;0.70;0.50;;;17.80;33.10;;;;;;4908197;29;20177;-82
2023/03/06 02:12:11;;;;;;;1.10;0.60;;;17.80;33.10;;;;;;4907841;29;20174;-82
2023/03/06 02:14:37;;;;;;;1.00;0.50;;;17.80;33.20;;;;;;4892289;29;20206;-84
2023/03/06 02:17:02;;;;;;;1.45;0.60;;;17.80;33.10;;;;;;4907552;29;20576;-84
2023/03/06 02:19:47;;;;;;;1.17;0.60;;;17.80;33.10;;;;;;4907314;29;20687;-82
2023/03/06 02:22:12;;;;;;;0.75;0.60;;;17.80;33.20;;;;;;4923404;29;20515;-84
2023/03/06 02:24:48;;;;;;;1.05;0.82;;;17.80;33.10;;;;;;4907485;29;20163;-82
2023/03/06 02:27:14;;;;;;;4.28;0.70;;;17.80;33.10;;;;;;4938390;29;20299;-82
2023/03/06 02:29:40;;;;;;;1.02;0.50;;;17.90;33.20;;;;;;4911474;29;20361;-83
2023/03/06 02:32:06;;;;;;;0.70;0.60;;;17.80;33.10;;;;;;4926646;29;20162;-82
2023/03/06 02:34:51;;;;;;;0.50;0.40;;;17.80;33.20;;;;;;4926509;29;20193;-84
2023/03/06 02:37:18;;;;;;;0.68;0.50;;;17.80;33.30;;;;;;4926749;29;20153;-82
2023/03/06 02:39:47;;;;;;;0.80;0.60;;;17.80;33.20;;;;;;4926767;29;20217;-81
2023/03/06 02:42:19;;;;;;;1.27;0.50;;;17.80;33.20;;;;;;4911340;29;20165;-84
2023/03/06 02:44:45;;;;;;;1.10;0.52;;;17.80;33.20;;;;;;4926972;29;20165;-82
2023/03/06 02:47:13;;;;;;;0.70;0.60;;;17.80;33.30;;;;;;4941958;29;20166;-83
2023/03/06 02:49:39;;;;;;;1.00;0.40;;;17.80;33.20;;;;;;4926450;29;20168;-83
2023/03/06 02:52:06;;;;;;;0.70;0.50;;;17.80;33.30;;;;;;4942421;29;20170;-82
2023/03/06 02:54:32;;;;;;;0.82;0.50;;;17.80;33.20;;;;;;4910295;29;20276;-84
2023/03/06 02:56:58;;;;;;;1.02;0.65;;;17.80;33.20;;;;;;4927117;29;20581;-81
2023/03/06 02:59:26;;;;;;;1.63;0.50;;;17.80;33.30;;;;;;4941923;29;20249;-82
2023/03/06 03:01:52;;;;;;;1.02;0.65;;;17.80;33.30;;;;;;4926383;29;20158;-81
2023/03/06 03:04:18;;;;;;;0.70;0.50;;;17.80;33.30;;;;;;4925967;29;20176;-84
2023/03/06 03:06:44;;;;;;;0.95;0.68;;;17.80;33.30;;;;;;4959409;28;20193;-81
2023/03/06 03:09:10;;;;;;;0.55;0.40;;;17.70;33.20;;;;;;4941915;29;20216;-84
2023/03/06 03:11:36;;;;;;;1.83;0.60;;;17.80;33.30;;;;;;4958997;29;20162;-84
2023/03/06 03:14:01;;;;;;;1.42;0.60;;;17.70;33.30;;;;;;4942537;29;20212;-82
2023/03/06 03:16:27;;;;;;;0.80;0.60;;;17.70;33.30;;;;;;4926903;29;20209;-82
2023/03/06 03:18:53;;;;;;;1.60;0.52;;;17.70;33.30;;;;;;4926349;29;20244;-82
2023/03/06 03:21:19;;;;;;;1.98;0.60;;;17.70;33.30;;;;;;4941800;29;20168;-83
2023/03/06 03:23:45;;;;;;;0.40;0.40;;;17.70;33.30;;;;;;4925946;29;20157;-83
2023/03/06 03:26:13;;;;;;;1.92;0.50;;;17.70;33.30;;;;;;4909876;29;20367;-85
2023/03/06 03:28:38;;;;;;;1.23;0.60;;;17.70;33.30;;;;;;4957931;28;20225;-84
2023/03/06 03:31:05;;;;;;;1.33;0.50;;;17.70;33.30;;;;;;4941943;29;20617;-85
2023/03/06 03:33:32;;;;;;;0.90;0.60;;;17.70;33.30;;;;;;4941189;29;20224;-83
2023/03/06 03:35:58;;;;;;;0.90;0.50;;;17.70;33.30;;;;;;4957731;28;20216;-85
2023/03/06 03:38:24;;;;;;;0.82;0.50;;;17.70;33.30;;;;;;4958470;29;20158;-84
2023/03/06 03:40:50;;;;;;;1.13;0.57;;;17.70;33.30;;;;;;4941218;29;20221;-83
2023/03/06 03:43:17;;;;;;;0.88;0.47;;;17.70;33.30;;;;;;4925264;29;20169;-81
2023/03/06 03:45:44;;;;;;;1.13;0.70;;;17.70;33.40;;;;;;4925017;29;20157;-82
2023/03/06 03:48:09;;;;;;;0.82;0.57;;;17.70;33.40;;;;;;4941072;29;20193;-84
2023/03/06 03:50:35;;;;;;;0.70;0.47;;;17.70;33.30;;;;;;4909452;29;20603;-84
2023/03/06 03:53:01;;;;;;;0.63;0.55;;;17.70;33.30;;;;;;4925310;29;20178;-83
2023/03/06 03:55:28;;;;;;;1.45;0.60;;;17.70;33.30;;;;;;4941365;29;20247;-83
2023/03/06 03:57:54;;;;;;;1.02;0.50;;;17.70;33.40;;;;;;4909788;29;20228;-81
2023/03/06 04:00:20;;;;;;;0.75;0.50;;;17.70;33.40;;;;;;4940924;29;20165;-82
2023/03/06 04:02:46;;;;;;;0.60;0.40;;;17.70;33.40;;;;;;4956957;28;20158;-82
2023/03/06 04:05:13;;;;;;;1.13;0.60;;;17.70;33.30;;;;;;4940796;29;20172;-82
2023/03/06 04:07:40;;;;;;;1.95;0.68;;;17.70;33.30;;;;;;4941048;29;20169;-83
2023/03/06 04:10:07;;;;;;;0.45;0.40;;;17.70;33.30;;;;;;4941201;29;20168;-84
2023/03/06 04:12:34;;;;;;;1.98;0.73;;;17.70;33.40;;;;;;4925473;29;20253;-82
2023/03/06 04:14:59;;;;;;;0.90;0.50;;;17.70;33.40;;;;;;4956741;28;20671;-84
2023/03/06 04:17:26;;;;;;;1.15;0.60;;;17.70;34.10;;;;;;4957050;28;20165;-82
2023/03/06 04:19:51;;;;;;;1.45;0.50;;;17.70;33.40;;;;;;4941428;29;20523;-83
2023/03/06 04:22:18;;;;;;;0.98;0.40;;;17.70;33.50;;;;;;4957459;28;20185;-81
2023/03/06 04:24:44;;;;;;;0.98;0.60;;;17.70;33.50;;;;;;4924920;29;20173;-81
2023/03/06 04:27:09;;;;;;;0.95;0.60;;;17.70;33.50;;;;;;4924949;29;20228;-82
2023/03/06 04:29:35;;;;;;;0.73;0.55;;;17.80;34.20;;;;;;4958057;29;20531;-84
2023/03/06 04:32:01;;;;;;;0.98;0.43;;;17.70;33.40;;;;;;4909297;29;20169;-84
2023/03/06 04:34:27;;;;;;;1.58;0.52;;;17.70;33.40;;;;;;4940915;29;20197;-81
2023/03/06 04:36:53;;;;;;;0.82;0.40;;;17.70;33.40;;;;;;4924782;29;20508;-83
2023/03/06 04:39:19;;;;;;;1.17;0.50;;;17.70;33.50;;;;;;4924352;29;20154;-84
2023/03/06 04:41:45;;;;;;;0.50;0.50;;;17.70;33.50;;;;;;4924833;29;20166;-82
2023/03/06 04:44:12;;;;;;;0.47;0.40;;;17.70;33.50;;;;;;4909464;29;20176;-82
2023/03/06 04:46:38;;;;;;;0.77;0.50;;;17.70;33.50;;;;;;4909339;29;20220;-82
2023/03/06 04:49:04;;;;;;;0.50;0.50;;;17.60;33.50;;;;;;4925028;29;20168;-82
2023/03/06 04:51:31;;;;;;;0.90;0.60;;;17.70;33.50;;;;;;4908613;29;20162;-84
2023/03/06 04:53:57;;;;;;;1.20;0.60;;;17.60;33.50;;;;;;4924453;29;20691;-84
2023/03/06 04:56:24;;;;;;;0.82;0.60;;;17.60;33.50;;;;;;4940899;29;20161;-84
2023/03/06 04:58:52;;;;;;;0.70;0.50;;;17.60;33.50;;;;;;4925068;29;20146;-84
2023/03/06 05:01:17;;;;;;;0.98;0.60;;;17.70;33.60;;;;;;4924831;29;20157;-85
2023/03/06 05:03:43;;;;;;;0.95;0.60;;;17.60;33.50;;;;;;4940731;29;20256;-84
2023/03/06 05:06:09;;;;;;;1.20;0.55;;;17.70;33.50;;;;;;4924801;29;20169;-84
2023/03/06 05:08:34;;;;;;;1.08;0.50;;;17.60;33.50;;;;;;4908740;29;20170;-84
2023/03/06 05:11:00;;;;;;;0.85;0.50;;;17.70;33.50;;;;;;4908685;29;20169;-84
2023/03/06 05:13:26;;;;;;;0.70;0.63;;;17.60;33.60;;;;;;4940901;29;20165;-83
2023/03/06 05:15:53;;;;;;;2.67;0.55;;;17.60;33.60;;;;;;4924232;29;20533;-83
2023/03/06 05:18:20;;;;;;;0.47;0.40;;;17.60;33.60;;;;;;4925075;29;20594;-83
2023/03/06 05:20:45;;;;;;;0.88;0.50;;;17.60;33.50;;;;;;4924182;29;20165;-81
2023/03/06 05:23:12;;;;;;;0.55;0.40;;;17.60;33.50;;;;;;4940390;29;20153;-81
2023/03/06 05:25:39;;;;;;;0.70;0.50;;;17.60;33.60;;;;;;4924427;28;20166;-84
2023/03/06 05:28:05;;;;;;;0.57;0.52;;;17.60;33.60;;;;;;4939909;29;20165;-84
2023/03/06 05:30:30;;;;;;;0.47;0.47;;;17.60;33.60;;;;;;4956642;29;20157;-85
2023/03/06 05:32:56;;;;;;;0.50;0.45;;;17.60;33.50;;;;;;4924747;29;20204;-81
2023/03/06 05:35:24;;;;;;;1.30;0.40;;;17.70;33.60;;;;;;4924466;29;20268;-84
2023/03/06 05:37:50;;;;;;;0.50;0.40;;;17.60;33.50;;;;;;4908653;29;20547;-84
2023/03/06 05:40:16;;;;;;;2.05;0.77;;;17.60;33.60;;;;;;4924114;29;20193;-84
2023/03/06 05:42:42;;;;;;;0.57;0.47;;;17.60;33.60;;;;;;4940029;29;20156;-83
2023/03/06 05:45:08;;;;;;;0.45;0.45;;;17.60;33.60;;;;;;4923997;29;20177;-82
2023/03/06 05:47:36;;;;;;;1.25;0.60;;;17.60;33.60;;;;;;4939550;29;20256;-84
2023/03/06 05:50:03;;;;;;;0.65;0.60;;;17.60;33.60;;;;;;4924806;29;20161;-82
2023/03/06 05:52:29;;;;;;;0.90;0.57;;;17.60;33.60;;;;;;4923561;29;20188;-84
2023/03/06 05:54:56;;;;;;;2.13;0.70;;;17.60;33.60;;;;;;4924213;29;20224;-84
2023/03/06 05:57:24;;;;;;;0.90;0.52;;;17.60;33.60;;;;;;4923516;29;20233;-83
2023/03/06 05:59:50;;;;;;;0.40;0.35;;;17.60;33.60;;;;;;4907871;29;20256;-84
2023/03/06 06:02:16;;;;;;;0.50;0.40;;;17.60;33.70;;;;;;4939382;29;20697;-85
2023/03/06 06:04:42;;;;;;;1.17;0.60;;;17.60;33.70;;;;;;4907700;29;20596;-82
2023/03/06 06:07:11;;;;;;;1.08;0.50;;;17.60;33.60;;;;;;4923658;29;20169;-83
2023/03/06 06:09:38;;;;;;;1.25;0.47;;;17.60;33.70;;;;;;4923673;29;20240;-82
2023/03/06 06:12:04;;;;;;;0.75;0.60;;;17.60;33.70;;;;;;4923948;29;20154;-85
2023/03/06 06:14:32;;;;;;;1.13;0.52;;;17.60;33.70;;;;;;4923499;29;20193;-81
2023/03/06 06:16:58;;;;;;;0.77;0.50;;;17.60;33.60;;;;;;4907566;29;20176;-82
2023/03/06 06:19:25;;;;;;;1.50;0.40;;;17.60;33.70;;;;;;4939049;29;20244;-83
2023/03/06 06:21:51;;;;;;;1.02;0.60;;;17.60;33.60;;;;;;4939539;29;20508;-82
2023/03/06 06:24:22;;;;;;;1.38;0.57;;;17.60;33.70;;;;;;4923267;29;20165;-85
2023/03/06 06:26:50;;;;;;;0.82;0.60;;;17.60;33.70;;;;;;4922666;29;20220;-84
2023/03/06 06:29:15;;;;;;;0.93;0.50;;;17.60;33.70;;;;;;4939432;29;20620;-83
2023/03/06 06:31:41;;;;;;;1.52;0.70;;;17.60;33.70;;;;;;4938566;29;20233;-82
2023/03/06 06:34:07;;;;;;;2.08;0.50;;;17.60;33.70;;;;;;4923315;29;20201;-84
2023/03/06 06:36:32;;;;;;;0.60;0.50;;;17.60;33.70;;;;;;4939093;29;20216;-82
2023/03/06 06:38:58;;;;;;;0.93;0.45;;;17.60;33.70;;;;;;4954588;29;20210;-85
2023/03/06 06:41:29;;;;;;;0.60;0.47;;;17.60;33.70;;;;;;4941622;29;20170;-85
2023/03/06 06:43:57;;;;;;;0.70;0.40;;;17.60;33.70;;;;;;4941957;29;20248;-83
2023/03/06 06:46:22;;;;;;;0.73;0.52;;;17.60;33.70;;;;;;4910172;29;20569;-83
2023/03/06 06:48:51;;;;;;;1.02;0.43;;;17.60;33.70;;;;;;4958393;28;20640;-84
2023/03/06 06:51:17;;;;;;;0.73;0.50;;;17.60;33.70;;;;;;4942748;29;20166;-84
2023/03/06 06:53:43;;;;;;;1.75;0.47;;;17.50;33.70;;;;;;4910243;29;20570;-82
2023/03/06 06:56:09;;;;;;;0.63;0.60;;;17.60;33.70;;;;;;4942367;29;20762;-83
2023/03/06 06:58:35;;;;;;;2.13;0.70;;;17.60;33.70;;;;;;4958089;28;20695;-82
2023/03/06 07:01:06;;;;;;;0.55;0.55;;;17.60;33.70;;;;;;4942117;29;20290;-82
2023/03/06 07:03:31;;;;;;;0.40;0.40;;;17.60;33.70;;;;;;4926538;29;20169;-86
2023/03/06 07:05:57;;;;;;;0.65;0.55;;;17.60;33.70;;;;;;4942276;29;20532;-82
2023/03/06 07:08:24;;;;;;;0.68;0.50;;;17.60;33.70;;;;;;4941667;29;20225;-84
2023/03/06 07:10:49;;;;;;;1.35;0.60;;;17.50;33.70;;;;;;4942220;29;20154;-82
2023/03/06 07:13:16;;;;;;;0.70;0.50;;;17.60;33.70;;;;;;4941723;29;20252;-84
2023/03/06 07:15:44;;;;;;;0.47;0.40;;;17.50;33.70;;;;;;4941882;29;20197;-82
2023/03/06 07:18:10;;;;;;;0.90;0.47;;;17.60;33.70;;;;;;4941481;29;20201;-83
2023/03/06 07:20:35;;;;;;;1.38;0.60;;;17.60;33.70;;;;;;4925781;29;20170;-84
2023/03/06 07:23:01;;;;;;;1.20;0.50;;;17.60;33.70;;;;;;4926680;29;20203;-85
2023/03/06 07:25:27;;;;;;;1.35;0.50;;;17.60;33.70;;;;;;4941474;28;20184;-84
2023/03/06 07:27:53;;;;;;;3.15;0.70;;;17.60;33.70;;;;;;4906033;29;20185;-84
2023/03/06 07:30:20;;;;;;;1.98;0.60;;;17.60;33.70;;;;;;4921316;29;20622;-82
2023/03/06 07:32:46;;;;;;;0.50;0.50;;;17.60;33.60;;;;;;4938359;29;20155;-83
2023/03/06 07:35:13;;;;;;;0.77;0.50;;;17.70;33.60;;;;;;4921593;29;20194;-85
2023/03/06 07:37:39;;;;;;;0.47;0.40;;;17.70;33.60;;;;;;4921562;29;20173;-81
2023/03/06 07:40:06;;;;;;;0.52;0.50;;;17.70;33.50;;;;;;4906489;29;20634;-84
2023/03/06 07:42:32;;;;;;;0.40;0.38;;;17.70;33.30;;;;;;4922088;29;20616;-83
2023/03/06 07:44:58;;;;;;;0.50;0.40;;;17.80;33.30;;;;;;4921768;29;20166;-83
2023/03/06 07:47:23;;;;;;;0.70;0.50;;;17.90;33.40;;;;;;4928355;29;20166;-82
2023/03/06 07:49:52;;;;;;;0.77;0.43;;;17.90;33.30;;;;;;4928454;29;20170;-82
2023/03/06 07:52:18;;;;;;;0.50;0.30;;;18.00;33.30;;;;;;4898607;29;20246;-79
2023/03/06 07:54:44;;;;;;;2.10;0.50;;;17.90;33.20;;;;;;4929085;29;20230;-82
2023/03/06 07:57:11;;;;;;;0.93;0.40;;;18.00;33.20;;;;;;4896375;29;20172;-82
2023/03/06 07:59:41;;;;;;;0.73;0.40;;;18.10;33.20;;;;;;4927051;29;20162;-79
2023/03/06 08:02:10;;;;;;;0.60;0.45;;;18.10;33.20;;;;;;4910116;29;20198;-80
2023/03/06 08:04:35;;;;;;;0.45;0.45;;;18.10;33.10;;;;;;4896549;29;20246;-81
2023/03/06 08:07:02;;;;;;;2.42;0.65;;;18.10;33.00;;;;;;4893858;29;20228;-82
2023/03/06 08:09:28;;;;;;;0.80;0.50;;;18.20;33.20;;;;;;4908182;29;20245;-81
2023/03/06 08:11:54;;;;;;;1.25;0.40;;;18.10;33.20;;;;;;4923507;29;20183;-81
2023/03/06 08:14:47;;;;;;;0.38;0.30;;;18.10;33.30;;;;;;4908775;29;20189;-79
2023/03/06 08:17:16;;;;;;;0.85;0.55;;;18.10;33.50;;;;;;4924191;29;20181;-84
2023/03/06 08:19:42;;;;;;;0.60;0.50;;;18.10;33.40;;;;;;4922916;29;20189;-84
2023/03/06 08:22:09;;;;;;;0.88;0.45;;;18.10;33.40;;;;;;4922882;29;20172;-83
2023/03/06 08:24:36;;;;;;;0.30;0.30;;;18.10;33.30;;;;;;4908194;29;20193;-82
2023/03/06 08:27:02;;;;;;;0.80;0.50;;;18.10;33.40;;;;;;4904883;29;20231;-83
2023/03/06 08:29:28;;;;;;;1.48;0.43;;;18.10;33.30;;;;;;4958410;28;20157;-81
2023/03/06 08:32:10;;;;;;;1.63;0.57;;;18.20;33.20;;;;;;4960150;29;20165;-83
2023/03/06 08:34:38;;;;;;;0.93;0.40;;;18.30;33.10;;;;;;4958842;28;20185;-83
2023/03/06 08:37:04;;;;;;;2.00;0.50;;;18.30;32.80;;;;;;4928247;29;20654;-83
2023/03/06 08:39:30;;;;;;;1.85;0.30;;;18.30;32.90;;;;;;4942491;29;20150;-83
2023/03/06 08:41:56;;;;;;;1.05;0.50;;;18.30;33.00;;;;;;4958598;29;20524;-82
2023/03/06 08:44:50;;;;;;;0.50;0.40;;;18.30;33.00;;;;;;4925804;29;20190;-82
2023/03/06 08:47:16;;;;;;;0.95;0.40;;;18.30;33.10;;;;;;4927410;29;20599;-83
2023/03/06 08:49:44;;;;;;;0.70;0.50;;;18.30;33.10;;;;;;4910209;29;20181;-82
2023/03/06 08:52:10;;;;;;;1.35;0.40;;;18.30;33.20;;;;;;4942950;29;20166;-85
2023/03/06 08:54:38;;;;;;;0.88;0.35;;;18.30;33.20;;;;;;4926629;29;20200;-85
2023/03/06 08:57:05;;;;;;;0.50;0.40;;;18.30;33.50;;;;;;4959394;28;20153;-82
2023/03/06 08:59:40;;;;;;;0.30;0.22;;;18.30;33.50;;;;;;4911259;29;20308;-82
2023/03/06 09:02:10;;;;;;;0.90;0.50;;;18.30;33.50;;;;;;4929721;29;20157;-82
2023/03/06 09:04:36;;;;;;;0.85;0.30;;;18.30;33.50;;;;;;4941634;29;20165;-82
2023/03/06 09:07:02;;;;;;;0.70;0.40;;;18.30;33.60;;;;;;4943849;29;20201;-81
2023/03/06 09:09:27;;;;;;;2.50;0.60;;;18.30;33.60;;;;;;4958909;28;20161;-82
2023/03/06 09:11:55;;;;;;;0.88;0.50;;;18.30;33.90;;;;;;4927713;29;20609;-81
2023/03/06 09:14:23;;;;;;;1.25;0.50;;;18.40;33.80;;;;;;4912581;29;20197;-84
2023/03/06 09:16:49;;;;;;;1.48;0.45;;;18.40;33.90;;;;;;4943404;29;20166;-79
2023/03/06 09:19:14;;;;;;;1.05;0.50;;;18.40;33.80;;;;;;4943244;29;20168;-83
2023/03/06 09:21:40;;;;;;;1.02;0.40;;;18.40;33.70;;;;;;4960498;29;20519;-85
2023/03/06 09:24:09;;;;;;;0.90;0.40;;;18.50;33.70;;;;;;4929925;29;20173;-82
2023/03/06 09:26:34;;;;;;;0.40;0.40;;;18.50;33.90;;;;;;4928797;29;20744;-82
2023/03/06 09:29:01;;;;;;;0.30;0.30;;;18.40;33.80;;;;;;4943737;29;20308;-82
2023/03/06 09:32:03;;;;;;;0.93;0.52;;;18.40;33.90;;;;;;4928125;29;20200;-82
2023/03/06 09:34:29;;;;;;;0.43;0.43;;;18.50;34.00;;;;;;4902081;29;20760;-82
2023/03/06 09:36:55;;;;;;;0.70;0.30;;;18.50;34.10;;;;;;4873526;29;20207;-82
2023/03/06 09:39:27;;;;;;;2.78;0.43;;;18.50;34.10;;;;;;4902530;29;20178;-82
2023/03/06 09:42:02;;;;;;;;;;;;;;;;;;;;;
2023/03/06 09:44:31;;;;;;;0.75;0.40;;;18.50;35.70;;;;;;4870697;29;20277;-82
2023/03/06 09:50:36;;;;;;;1.13;0.40;;;18.60;35.50;;;;;;4902723;29;20166;-81
2023/03/06 09:53:19;;;;;;;1.83;0.28;;;18.70;34.70;;;;;;4901774;29;20174;-82
2023/03/06 09:55:49;;;;;;;0.68;0.40;;;18.60;35.00;;;;;;4915972;29;20215;-83
2023/03/06 09:58:49;;;;;;;2.63;0.40;;;18.60;34.40;;;;;;4880870;29;20241;-82
2023/03/06 10:02:02;;;;;;;;;;;;;;;;;;;;;
2023/03/06 10:05:35;;;;;;;1.90;0.65;;;18.60;34.40;;;;;;4851652;29;20277;-81
2023/03/06 10:08:19;;;;;;;2.83;0.52;;;18.60;34.40;;;;;;4830390;29;20193;-84
2023/03/06 10:11:08;;;;;;;0.47;0.30;;;18.50;34.60;;;;;;4829489;29;20197;-82
2023/03/06 10:14:15;;;;;;;0.95;0.35;;;18.50;34.70;;;;;;4801364;29;20289;-83
2023/03/06 10:16:57;;;;;;;1.67;0.40;;;18.60;34.50;;;;;;4848843;29;20552;-83
2023/03/06 10:19:30;;;;;;;1.27;0.30;;;18.60;34.60;;;;;;4830767;29;20260;-84
2023/03/06 10:22:01;;;;;;;0.40;0.32;;;18.50;34.60;;;;;;4830112;29;20192;-80
2023/03/06 10:24:49;;;;;;;2.55;0.30;;;18.60;34.70;;;;;;4832446;29;20330;-82
2023/03/06 10:28:10;;;;;;;;;;;;;;;;;;;;;
2023/03/06 10:30:49;;;;;;;1.05;0.43;;;18.60;34.70;;;;;;4799442;30;20199;-84
2023/03/06 10:33:52;;;;;;;2.15;0.30;;;18.70;34.80;;;;;;4822565;29;20186;-85
2023/03/06 10:36:20;;;;;;;0.68;0.50;;;18.60;35.30;;;;;;4838324;29;20194;-81
2023/03/06 10:38:47;;;;;;;2.53;0.65;;;18.60;34.70;;;;;;4850029;29;20675;-82
2023/03/06 10:41:28;;;;;;;1.23;0.30;;;18.50;34.80;;;;;;4859125;29;20271;-83
2023/03/06 10:44:12;;;;;;;1.60;0.35;;;18.60;34.80;;;;;;4824843;29;20272;-83
2023/03/06 10:46:42;;;;;;;1.75;0.30;;;18.70;34.80;;;;;;4858972;29;20189;-85
2023/03/06 10:49:30;;;;;;;0.52;0.38;;;18.70;34.80;;;;;;4802083;29;20191;-85
2023/03/06 10:52:55;;;;;;;;;;;;;;;;;;;;;
2023/03/06 10:55:26;;;;;;;0.25;0.20;;;18.70;34.60;;;;;;4796842;30;20258;-83
2023/03/06 10:57:54;;;;;;;0.20;0.20;;;18.60;34.50;;;;;;4795466;29;20223;-82
2023/03/06 11:00:46;;;;;;;0.20;0.20;;;18.60;34.60;;;;;;4812848;29;20189;-83
2023/03/06 11:03:24;;;;;;;1.48;0.30;;;18.60;34.60;;;;;;4822648;29;20203;-85
2023/03/06 11:06:37;;;;;;;0.90;0.30;;;18.60;34.70;;;;;;4817926;29;20645;-83
2023/03/06 11:09:25;;;;;;;0.50;0.38;;;18.60;34.60;;;;;;4802970;29;20207;-85
2023/03/06 11:11:52;;;;;;;1.15;0.30;;;18.70;34.60;;;;;;4799959;30;20205;-84
2023/03/06 11:14:24;;;;;;;0.25;0.25;;;18.60;34.40;;;;;;4794611;30;20216;-84
2023/03/06 11:16:52;;;;;;;1.75;0.30;;;18.70;34.50;;;;;;4795729;30;20188;-83
2023/03/06 11:19:25;;;;;;;1.13;0.30;;;18.60;34.40;;;;;;4805202;29;20267;-85
2023/03/06 11:21:59;;;;;;;0.90;0.20;;;18.60;34.40;;;;;;4848957;29;20187;-84
2023/03/06 11:24:35;;;;;;;0.50;0.30;;;18.70;34.40;;;;;;4848847;29;20552;-85
2023/03/06 11:27:05;;;;;;;0.30;0.30;;;18.80;34.40;;;;;;4802842;29;20238;-83
2023/03/06 11:29:45;;;;;;;0.70;0.20;;;18.70;34.30;;;;;;4809237;29;20194;-84
2023/03/06 11:32:35;;;;;;;0.75;0.30;;;18.70;34.20;;;;;;4811907;29;20194;-85
2023/03/06 11:35:05;;;;;;;0.17;0.17;;;18.80;34.10;;;;;;4843768;29;20216;-83
2023/03/06 11:37:48;;;;;;;0.63;0.30;;;18.70;34.00;;;;;;4847418;29;20209;-85
2023/03/06 11:40:23;;;;;;;1.30;0.38;;;18.80;33.90;;;;;;4846645;29;20185;-84
2023/03/06 11:42:58;;;;;;;0.93;0.25;;;18.80;33.90;;;;;;4854616;29;20180;-84
2023/03/06 11:45:42;;;;;;;0.20;0.20;;;18.70;33.90;;;;;;4865702;29;20204;-83
2023/03/06 11:48:31;;;;;;;0.40;0.30;;;18.70;34.00;;;;;;4866869;29;20271;-83
2023/03/06 11:51:06;;;;;;;0.88;0.50;;;18.70;33.90;;;;;;4864921;29;20176;-85
2023/03/06 11:53:34;;;;;;;3.17;0.35;;;18.60;33.90;;;;;;4866833;29;20199;-83
2023/03/06 11:56:33;;;;;;;2.53;0.40;;;18.70;33.80;;;;;;4883027;29;20676;-84
2023/03/06 11:59:17;;;;;;;2.35;0.50;;;18.70;33.80;;;;;;4940868;29;20185;-83
2023/03/06 12:02:02;;;;;;;3.95;0.30;;;18.70;33.70;;;;;;4944330;29;20149;-82
2023/03/06 12:04:52;;;;;;;3.40;0.60;;;18.70;33.70;;;;;;4964336;28;20252;-85
2023/03/06 12:07:34;;;;;;;3.33;0.50;;;18.70;33.70;;;;;;4931052;29;20272;-85
2023/03/06 12:10:13;;;;;;;7.63;0.75;;;18.70;33.60;;;;;;4947312;29;20162;-85
2023/03/06 12:12:52;;;;;;;3.33;0.40;;;18.70;33.50;;;;;;4931646;29;20537;-83
2023/03/06 12:15:32;;;;;;;4.82;0.40;;;18.80;33.40;;;;;;4929776;29;20660;-85
2023/03/06 12:18:22;;;;;;;3.30;0.50;;;18.80;33.30;;;;;;4946103;29;20204;-84
2023/03/06 12:21:12;;;;;;;3.88;0.40;;;18.70;34.20;;;;;;4931776;29;20500;-85
2023/03/06 12:24:03;;;;;;;2.75;0.40;;;18.70;33.60;;;;;;4928709;29;20174;-84
2023/03/06 12:27:09;;;;;;;3.65;0.50;;;18.70;33.60;;;;;;4944010;29;20218;-83
2023/03/06 12:33:23;;;;;;;2.63;0.40;;;18.70;33.50;;;;;;4816345;29;20235;-83
2023/03/06 12:36:16;;;;;;;0.30;0.30;;;18.60;33.30;;;;;;4784582;30;20226;-85
2023/03/06 12:39:02;;;;;;;2.22;0.30;;;18.60;33.30;;;;;;4754896;30;20246;-83
2023/03/06 12:42:02;;;;;;;2.28;0.38;;;18.70;33.30;;;;;;4739318;30;20185;-83
2023/03/06 12:44:37;;;;;;;2.03;0.50;;;18.70;33.20;;;;;;4738117;30;20215;-86
2023/03/06 12:47:10;;;;;;;2.40;0.40;;;18.60;33.20;;;;;;4737548;30;20283;-82
2023/03/06 12:49:39;;;;;;;1.25;0.20;;;18.60;33.20;;;;;;4737248;30;20204;-85
2023/03/06 12:52:06;;;;;;;0.98;0.47;;;18.60;33.00;;;;;;4751285;30;20226;-85
2023/03/06 12:54:35;;;;;;;1.75;0.30;;;18.70;32.90;;;;;;4736368;30;20232;-84
2023/03/06 12:57:02;;;;;;;2.50;0.40;;;18.70;32.90;;;;;;4736827;30;20352;-86
2023/03/06 12:59:46;;;;;;;1.42;0.20;;;18.70;32.80;;;;;;4739807;30;20200;-86
2023/03/06 13:02:24;;;;;;;2.13;0.55;;;18.80;32.90;;;;;;4772505;30;20196;-84
2023/03/06 13:05:11;;;;;;;0.93;0.30;;;18.80;32.80;;;;;;4773060;30;20639;-86
2023/03/06 13:07:52;;;;;;;1.42;0.20;;;18.70;32.70;;;;;;4791975;29;20190;-83
2023/03/06 13:10:26;;;;;;;0.63;0.40;;;18.80;32.70;;;;;;4869342;29;20190;-85
2023/03/06 13:12:57;;;;;;;1.75;0.47;;;18.80;32.60;;;;;;4898711;29;20169;-83
2023/03/06 13:15:44;;;;;;;0.68;0.30;;;18.80;32.50;;;;;;4899173;29;20225;-83
2023/03/06 13:18:42;;;;;;;0.50;0.28;;;18.80;32.50;;;;;;4867402;29;20645;-83